Time;durP1;ratioP1;P1;durP2;ratioP2;P2;SDS_P1;SDS_P2;PMS_P1;PMS_P2;Temp;Humidity;BMP_temperature;BMP_pressure;BME280_temperature;BME280_humidity;BME280_pressure;Samples;Min_cycle;Max_cycle;Signal;HPM_P1;HPM_P2
2023/08/25 00:01:16;;;;;;;3.05;1.60;;;22.30;99.90;;;;;;5054792;28;20207;-61
2023/08/25 00:03:42;;;;;;;2.05;1.40;;;22.30;99.90;;;;;;5054882;28;20677;-60
2023/08/25 00:06:09;;;;;;;3.08;1.67;;;22.40;99.90;;;;;;5054346;28;20232;-61
2023/08/25 00:08:36;;;;;;;4.93;1.70;;;22.40;99.90;;;;;;5054583;28;20221;-60
2023/08/25 00:11:04;;;;;;;1.73;1.42;;;22.40;99.90;;;;;;5054280;28;20233;-63
2023/08/25 00:13:35;;;;;;;2.97;1.60;;;22.50;99.90;;;;;;5054715;28;20209;-60
2023/08/25 00:16:02;;;;;;;2.58;1.73;;;22.60;99.90;;;;;;5054091;28;20236;-61
2023/08/25 00:18:29;;;;;;;3.58;1.67;;;22.60;99.90;;;;;;5054265;28;20229;-60
2023/08/25 00:20:56;;;;;;;2.28;1.55;;;22.70;99.90;;;;;;5054359;28;20205;-60
2023/08/25 00:23:22;;;;;;;2.92;1.50;;;22.70;99.90;;;;;;5054205;28;20205;-60
2023/08/25 00:25:49;;;;;;;4.63;1.90;;;22.70;99.90;;;;;;5053954;28;20216;-64
2023/08/25 00:28:17;;;;;;;2.90;1.80;;;22.70;99.90;;;;;;5053903;28;20236;-61
2023/08/25 00:30:44;;;;;;;3.90;1.45;;;22.80;99.90;;;;;;5054019;28;20232;-61
2023/08/25 00:33:10;;;;;;;2.47;1.55;;;22.80;99.90;;;;;;5053946;28;20688;-60
2023/08/25 00:35:37;;;;;;;2.90;1.60;;;22.80;99.90;;;;;;5053925;28;20244;-60
2023/08/25 00:38:04;;;;;;;4.40;1.60;;;22.90;99.90;;;;;;5053676;28;20226;-61
2023/08/25 00:40:35;;;;;;;3.22;1.65;;;22.90;99.90;;;;;;5054090;28;20213;-60
2023/08/25 00:43:03;;;;;;;4.45;1.58;;;23.00;99.90;;;;;;5053979;28;20213;-61
2023/08/25 00:45:33;;;;;;;2.70;1.73;;;23.10;99.90;;;;;;5054051;28;20270;-60
2023/08/25 00:48:00;;;;;;;3.50;1.63;;;23.10;99.90;;;;;;5053305;28;20268;-65
2023/08/25 00:50:29;;;;;;;3.20;1.80;;;23.20;99.90;;;;;;5053902;28;20226;-62
2023/08/25 00:52:57;;;;;;;2.97;1.70;;;23.20;99.90;;;;;;5053799;28;20209;-63
2023/08/25 00:55:23;;;;;;;3.38;1.48;;;23.20;99.90;;;;;;5053747;28;20212;-60
2023/08/25 00:57:51;;;;;;;3.58;1.58;;;23.20;99.90;;;;;;5053328;28;20228;-62
2023/08/25 01:00:18;;;;;;;1.70;1.52;;;23.30;99.90;;;;;;5053455;28;20206;-61
2023/08/25 01:02:46;;;;;;;2.25;1.50;;;23.30;99.90;;;;;;5053699;28;20210;-61
2023/08/25 01:05:13;;;;;;;8.00;1.90;;;23.10;99.90;;;;;;5053415;28;20631;-59
2023/08/25 01:07:43;;;;;;;3.70;1.73;;;23.10;99.90;;;;;;5052832;28;20727;-60
2023/08/25 01:10:11;;;;;;;2.88;1.77;;;23.00;99.90;;;;;;5053554;28;20232;-59
2023/08/25 01:12:49;;;;;;;2.53;1.88;;;23.00;99.90;;;;;;5053738;28;20234;-60
2023/08/25 01:15:23;;;;;;;2.53;1.70;;;23.00;99.90;;;;;;5054023;28;20201;-60
2023/08/25 01:18:02;;;;;;;3.05;1.90;;;22.90;99.90;;;;;;5054418;28;20647;-60
2023/08/25 01:20:29;;;;;;;5.20;1.92;;;22.80;99.90;;;;;;5054767;28;20212;-62
2023/08/25 01:23:10;;;;;;;3.47;1.77;;;22.80;99.90;;;;;;5054606;28;20244;-59
2023/08/25 01:25:38;;;;;;;2.97;1.90;;;22.70;99.90;;;;;;5054691;28;20264;-60
2023/08/25 01:28:06;;;;;;;3.25;1.70;;;22.70;99.90;;;;;;5054196;28;20221;-61
2023/08/25 01:30:35;;;;;;;2.55;2.05;;;22.70;99.90;;;;;;5054256;28;20697;-60
2023/08/25 01:33:02;;;;;;;2.95;1.60;;;22.80;99.90;;;;;;5054262;28;20296;-61
2023/08/25 01:35:43;;;;;;;2.00;1.80;;;22.70;99.90;;;;;;5054703;28;20587;-61
2023/08/25 01:38:15;;;;;;;5.72;1.95;;;22.70;99.90;;;;;;5054126;28;20264;-62
2023/08/25 01:40:45;;;;;;;3.45;1.85;;;22.70;99.90;;;;;;5053447;28;20234;-60
2023/08/25 01:43:16;;;;;;;4.93;2.00;;;22.70;99.90;;;;;;5052988;28;20206;-59
2023/08/25 01:45:42;;;;;;;3.88;1.88;;;22.70;99.90;;;;;;5052607;28;20227;-61
2023/08/25 01:48:11;;;;;;;3.25;1.80;;;22.80;99.90;;;;;;5053060;28;20302;-60
2023/08/25 01:50:39;;;;;;;2.33;1.83;;;22.90;99.90;;;;;;5052484;28;20604;-61
2023/08/25 01:53:06;;;;;;;1.70;1.52;;;22.90;99.90;;;;;;5052855;28;20206;-61
2023/08/25 01:55:33;;;;;;;2.38;1.63;;;22.90;99.90;;;;;;5052795;28;20213;-62
2023/08/25 01:58:01;;;;;;;3.33;1.80;;;23.00;99.90;;;;;;5052461;28;20709;-61
2023/08/25 02:00:27;;;;;;;2.15;1.70;;;23.10;99.90;;;;;;5052664;28;20216;-61
2023/08/25 02:02:54;;;;;;;3.83;1.80;;;23.10;99.90;;;;;;5052341;28;20205;-61
2023/08/25 02:05:21;;;;;;;5.50;1.73;;;23.20;99.90;;;;;;5052308;28;20213;-62
2023/08/25 02:07:48;;;;;;;2.72;1.80;;;23.20;99.90;;;;;;5052046;28;20232;-62
2023/08/25 02:10:14;;;;;;;2.25;1.92;;;23.30;99.90;;;;;;5052417;28;20258;-61
2023/08/25 02:12:41;;;;;;;1.70;1.60;;;23.30;99.90;;;;;;5052444;28;20220;-61
2023/08/25 02:15:10;;;;;;;3.72;1.90;;;23.40;99.90;;;;;;5052267;28;20614;-60
2023/08/25 02:17:37;;;;;;;5.20;1.65;;;23.40;99.90;;;;;;5051183;28;20245;-62
2023/08/25 02:20:05;;;;;;;3.33;1.77;;;23.40;99.90;;;;;;5052320;28;20212;-62
2023/08/25 02:22:32;;;;;;;3.45;1.67;;;23.40;99.90;;;;;;5052051;28;20289;-61
2023/08/25 02:24:59;;;;;;;2.70;2.03;;;23.40;99.90;;;;;;5052238;28;20213;-63
2023/08/25 02:27:25;;;;;;;2.28;1.50;;;23.40;99.90;;;;;;5051474;28;20225;-64
2023/08/25 02:29:53;;;;;;;2.28;1.60;;;23.50;99.90;;;;;;5051845;28;20213;-61
2023/08/25 02:32:21;;;;;;;4.75;1.70;;;23.50;99.90;;;;;;5051807;28;20205;-61
2023/08/25 02:34:48;;;;;;;3.38;1.70;;;23.50;99.90;;;;;;5052159;28;20209;-61
2023/08/25 02:37:14;;;;;;;4.28;1.85;;;23.50;99.90;;;;;;5051606;28;20230;-62
2023/08/25 02:39:41;;;;;;;5.03;1.98;;;23.50;99.90;;;;;;5052075;28;20212;-60
2023/08/25 02:42:08;;;;;;;3.20;1.73;;;23.60;99.90;;;;;;5051766;28;20300;-63
2023/08/25 02:44:34;;;;;;;2.78;1.75;;;23.60;99.90;;;;;;5051762;28;20688;-61
2023/08/25 02:47:01;;;;;;;4.75;2.35;;;23.70;99.90;;;;;;5051381;28;20237;-61
2023/08/25 02:49:29;;;;;;;6.38;2.10;;;23.70;99.90;;;;;;5051537;28;20573;-62
2023/08/25 02:51:57;;;;;;;2.45;1.95;;;23.70;99.90;;;;;;5051473;28;20602;-61
2023/08/25 02:54:23;;;;;;;3.13;1.60;;;23.70;99.90;;;;;;5051665;28;20732;-61
2023/08/25 02:56:50;;;;;;;2.97;1.92;;;23.70;99.90;;;;;;5051300;28;20732;-60
2023/08/25 02:59:17;;;;;;;3.47;2.20;;;23.80;99.90;;;;;;5051339;28;20705;-60
2023/08/25 03:01:44;;;;;;;2.75;1.80;;;23.70;99.90;;;;;;5051391;28;20202;-60
2023/08/25 03:04:10;;;;;;;5.80;2.08;;;23.60;99.90;;;;;;5051607;28;20244;-61
2023/08/25 03:06:39;;;;;;;2.42;1.90;;;23.60;99.90;;;;;;5051177;28;20209;-64
2023/08/25 03:09:06;;;;;;;3.10;1.98;;;23.50;99.90;;;;;;5051459;28;20266;-62
2023/08/25 03:11:32;;;;;;;4.10;1.80;;;23.20;99.90;;;;;;5051154;28;20237;-61
2023/08/25 03:13:59;;;;;;;2.97;1.90;;;23.30;99.90;;;;;;5051165;28;20214;-63
2023/08/25 03:16:26;;;;;;;3.55;1.83;;;23.10;99.90;;;;;;5051293;28;20259;-62
2023/08/25 03:18:52;;;;;;;3.47;1.95;;;23.00;99.90;;;;;;5051584;28;20208;-63
2023/08/25 03:21:19;;;;;;;3.33;1.65;;;22.90;99.90;;;;;;5051486;28;20201;-63
2023/08/25 03:23:47;;;;;;;2.78;1.83;;;22.80;99.90;;;;;;5051157;28;20212;-62
2023/08/25 03:26:14;;;;;;;4.97;1.80;;;22.70;99.90;;;;;;5051043;28;20305;-63
2023/08/25 03:28:40;;;;;;;4.47;2.17;;;22.70;99.90;;;;;;5051054;28;20236;-63
2023/08/25 03:31:07;;;;;;;7.03;2.33;;;22.50;99.90;;;;;;5055441;28;20230;-63
2023/08/25 03:33:34;;;;;;;4.53;2.78;;;22.40;99.90;;;;;;5055433;28;20214;-63
2023/08/25 03:36:00;;;;;;;2.05;1.73;;;22.40;99.90;;;;;;5055340;28;20216;-62
2023/08/25 03:38:27;;;;;;;4.32;1.88;;;22.30;99.90;;;;;;5055026;28;20283;-62
2023/08/25 03:40:59;;;;;;;3.35;1.90;;;22.30;99.90;;;;;;5055262;28;20210;-62
2023/08/25 03:43:26;;;;;;;2.65;2.20;;;22.20;99.90;;;;;;5055296;28;20197;-61
2023/08/25 03:45:53;;;;;;;2.47;1.77;;;22.10;99.90;;;;;;5055039;28;20214;-62
2023/08/25 03:48:20;;;;;;;3.42;2.08;;;22.10;99.90;;;;;;5054866;28;20610;-62
2023/08/25 03:50:47;;;;;;;6.82;2.03;;;22.00;99.90;;;;;;5054799;28;20225;-61
2023/08/25 03:53:14;;;;;;;3.30;2.10;;;21.90;99.90;;;;;;5055033;28;20202;-64
2023/08/25 03:55:41;;;;;;;4.85;2.40;;;21.90;99.90;;;;;;5054510;28;20210;-63
2023/08/25 03:58:09;;;;;;;3.92;2.30;;;21.80;99.90;;;;;;5054500;28;20705;-63
2023/08/25 04:00:35;;;;;;;3.97;1.98;;;21.70;99.90;;;;;;5054956;28;20235;-63
2023/08/25 04:03:03;;;;;;;4.55;2.10;;;21.70;99.90;;;;;;5055051;28;20209;-63
2023/08/25 04:05:30;;;;;;;4.35;2.20;;;21.50;99.90;;;;;;5054738;28;20331;-61
2023/08/25 04:07:57;;;;;;;5.20;2.08;;;21.40;99.90;;;;;;5054362;28;20300;-61
2023/08/25 04:10:24;;;;;;;4.05;2.00;;;21.40;99.90;;;;;;5054242;28;20240;-61
2023/08/25 04:12:51;;;;;;;3.40;2.15;;;21.40;99.90;;;;;;5054610;28;20237;-61
2023/08/25 04:15:20;;;;;;;4.15;2.20;;;21.40;99.90;;;;;;5054616;28;20213;-61
2023/08/25 04:17:47;;;;;;;3.03;1.83;;;21.40;99.90;;;;;;5054405;28;20236;-64
2023/08/25 04:20:14;;;;;;;4.13;2.33;;;21.40;99.90;;;;;;5054451;28;20209;-61
2023/08/25 04:22:41;;;;;;;7.18;2.20;;;21.40;99.90;;;;;;5054189;28;20256;-64
2023/08/25 04:25:09;;;;;;;3.55;2.50;;;21.30;99.90;;;;;;5054335;28;20241;-61
2023/08/25 04:27:36;;;;;;;4.95;2.00;;;21.40;99.90;;;;;;5054224;28;20225;-61
2023/08/25 04:30:03;;;;;;;2.63;2.42;;;21.30;99.90;;;;;;5054168;28;20212;-61
2023/08/25 04:32:31;;;;;;;6.05;2.25;;;21.10;99.90;;;;;;5054166;28;20225;-61
2023/08/25 04:34:58;;;;;;;5.53;2.20;;;21.10;99.90;;;;;;5054511;28;20212;-61
2023/08/25 04:37:25;;;;;;;3.65;2.63;;;21.10;99.90;;;;;;5053869;28;20248;-60
2023/08/25 04:39:52;;;;;;;9.75;2.80;;;21.00;99.90;;;;;;5054048;28;20217;-63
2023/08/25 04:42:19;;;;;;;6.32;2.38;;;21.10;99.90;;;;;;5053403;28;20208;-63
2023/08/25 04:44:47;;;;;;;3.38;2.22;;;21.10;99.90;;;;;;5054066;28;20210;-61
2023/08/25 04:47:13;;;;;;;3.53;2.50;;;21.00;99.90;;;;;;5053550;28;20243;-63
2023/08/25 04:49:42;;;;;;;4.25;2.17;;;21.10;99.90;;;;;;5053746;28;20240;-60
2023/08/25 04:52:09;;;;;;;4.35;2.60;;;21.10;99.90;;;;;;5054139;28;20232;-64
2023/08/25 04:54:36;;;;;;;7.50;2.70;;;21.10;99.90;;;;;;5053818;28;20208;-64
2023/08/25 04:57:03;;;;;;;3.10;2.78;;;21.20;99.90;;;;;;5053569;28;20241;-63
2023/08/25 04:59:30;;;;;;;3.50;2.50;;;21.20;99.90;;;;;;5053962;28;20206;-64
2023/08/25 05:01:57;;;;;;;5.65;2.83;;;21.30;99.90;;;;;;5053547;28;20228;-63
2023/08/25 05:04:23;;;;;;;3.03;2.50;;;21.30;99.90;;;;;;5053550;28;20236;-65
2023/08/25 05:06:51;;;;;;;2.53;2.33;;;21.30;99.90;;;;;;5053404;28;20233;-62
2023/08/25 05:09:18;;;;;;;5.85;3.03;;;21.30;99.90;;;;;;5053819;28;20275;-62
2023/08/25 05:11:45;;;;;;;5.95;2.95;;;21.40;99.90;;;;;;5053539;28;20244;-62
2023/08/25 05:14:12;;;;;;;4.72;2.80;;;21.50;99.90;;;;;;5053659;28;20209;-62
2023/08/25 05:16:39;;;;;;;6.40;2.70;;;21.60;99.90;;;;;;5053043;28;20245;-62
2023/08/25 05:19:06;;;;;;;4.57;2.53;;;21.60;99.90;;;;;;5053170;28;20582;-62
2023/08/25 05:21:33;;;;;;;6.75;2.63;;;21.60;99.90;;;;;;5053300;28;20681;-62
2023/08/25 05:24:19;;;;;;;3.42;2.33;;;21.80;99.90;;;;;;5053187;28;20576;-64
2023/08/25 05:26:51;;;;;;;3.58;2.70;;;21.90;99.90;;;;;;5052722;28;20213;-66
2023/08/25 05:29:17;;;;;;;5.15;2.22;;;22.10;99.90;;;;;;5052702;28;20715;-62
2023/08/25 05:31:44;;;;;;;5.47;2.70;;;22.30;99.90;;;;;;5052568;28;20248;-61
2023/08/25 05:34:11;;;;;;;3.75;2.50;;;22.50;99.90;;;;;;5053602;28;20626;-62
2023/08/25 05:36:38;;;;;;;4.13;2.72;;;22.90;99.90;;;;;;5052968;28;20206;-64
2023/08/25 05:39:05;;;;;;;5.00;2.60;;;23.20;99.90;;;;;;5053060;28;20567;-64
2023/08/25 05:41:33;;;;;;;4.93;2.28;;;23.40;99.90;;;;;;5052514;28;20217;-64
2023/08/25 05:44:01;;;;;;;5.35;2.42;;;23.80;99.90;;;;;;5052826;28;20214;-64
2023/08/25 05:46:29;;;;;;;5.07;2.20;;;24.50;99.90;;;;;;5052690;28;20212;-62
2023/08/25 05:48:56;;;;;;;4.03;2.25;;;25.20;99.90;;;;;;5052812;28;20251;-61
2023/08/25 05:51:23;;;;;;;5.63;2.10;;;26.00;99.90;;;;;;5052664;28;20226;-61
2023/08/25 05:53:49;;;;;;;5.28;2.30;;;26.50;99.90;;;;;;5051613;28;20522;-60
2023/08/25 05:56:16;;;;;;;3.40;2.08;;;26.60;99.90;;;;;;5052297;28;20250;-61
2023/08/25 05:58:44;;;;;;;4.88;2.30;;;26.60;99.90;;;;;;5052109;28;20255;-62
2023/08/25 06:01:12;;;;;;;2.45;1.90;;;26.60;99.90;;;;;;5052418;28;20217;-61
2023/08/25 06:03:38;;;;;;;5.05;2.17;;;27.00;99.90;;;;;;5052352;28;20217;-61
2023/08/25 06:06:05;;;;;;;10.15;2.20;;;27.30;99.90;;;;;;5052072;28;20665;-61
2023/08/25 06:08:32;;;;;;;5.68;2.17;;;27.30;99.90;;;;;;5052145;28;20232;-63
2023/08/25 06:10:59;;;;;;;4.88;1.98;;;27.30;99.90;;;;;;5052350;28;20205;-61
2023/08/25 06:13:26;;;;;;;5.10;1.88;;;27.30;99.90;;;;;;5052461;28;20263;-60
2023/08/25 06:15:54;;;;;;;4.35;1.83;;;27.20;99.90;;;;;;5051782;28;20339;-63
2023/08/25 06:18:20;;;;;;;4.40;1.85;;;26.80;99.90;;;;;;5052177;28;20255;-61
2023/08/25 06:20:50;;;;;;;6.47;2.10;;;26.30;99.90;;;;;;5052153;28;20216;-62
2023/08/25 06:23:16;;;;;;;3.75;2.28;;;25.70;99.90;;;;;;5052258;28;20236;-62
2023/08/25 06:25:44;;;;;;;5.45;2.10;;;25.30;99.90;;;;;;5051685;28;20205;-63
2023/08/25 06:28:12;;;;;;;2.85;2.20;;;25.00;99.90;;;;;;5051951;28;20689;-63
2023/08/25 06:30:41;;;;;;;5.05;2.53;;;24.80;99.90;;;;;;5051662;28;20283;-62
2023/08/25 06:33:09;;;;;;;4.85;2.40;;;24.60;99.90;;;;;;5051516;28;20271;-62
2023/08/25 06:35:37;;;;;;;3.88;2.45;;;24.40;99.90;;;;;;5051874;28;20205;-59
2023/08/25 06:38:04;;;;;;;6.93;2.60;;;24.20;99.90;;;;;;5051474;28;20702;-64
2023/08/25 06:40:33;;;;;;;5.97;2.45;;;23.90;99.90;;;;;;5051979;28;20206;-62
2023/08/25 06:43:01;;;;;;;8.65;2.70;;;23.70;99.90;;;;;;5052026;28;20216;-63
2023/08/25 06:45:27;;;;;;;5.47;2.35;;;23.60;99.90;;;;;;5052065;28;20205;-63
2023/08/25 06:47:54;;;;;;;4.28;2.70;;;23.50;99.90;;;;;;5051165;28;20346;-62
2023/08/25 06:50:22;;;;;;;4.07;2.45;;;23.40;99.90;;;;;;5051625;28;20209;-63
2023/08/25 06:52:49;;;;;;;6.88;2.50;;;23.30;99.90;;;;;;5051131;28;20222;-63
2023/08/25 06:55:17;;;;;;;3.70;2.15;;;23.20;99.90;;;;;;5051374;28;20210;-63
2023/08/25 06:57:43;;;;;;;4.78;2.60;;;23.20;99.90;;;;;;5051389;28;20603;-64
2023/08/25 07:00:12;;;;;;;6.32;2.72;;;23.30;99.90;;;;;;5051502;28;20275;-63
2023/08/25 07:02:39;;;;;;;6.97;2.85;;;23.30;99.90;;;;;;5051227;28;20206;-62
2023/08/25 07:05:06;;;;;;;5.18;2.72;;;23.30;99.90;;;;;;5050812;28;20209;-64
2023/08/25 07:07:35;;;;;;;8.60;3.08;;;23.30;99.90;;;;;;5051002;28;20233;-63
2023/08/25 07:10:02;;;;;;;8.98;3.13;;;23.40;99.90;;;;;;5051874;28;20214;-64
2023/08/25 07:12:29;;;;;;;9.23;3.03;;;23.30;99.90;;;;;;5051517;28;20225;-65
2023/08/25 07:14:56;;;;;;;5.78;3.33;;;23.20;99.90;;;;;;5051521;28;20255;-65
2023/08/25 07:17:22;;;;;;;5.85;3.10;;;23.20;99.90;;;;;;5050794;28;20627;-65
2023/08/25 07:19:49;;;;;;;8.65;3.20;;;23.10;99.90;;;;;;5051322;28;20212;-64
2023/08/25 07:22:16;;;;;;;4.85;2.80;;;22.90;99.90;;;;;;5051340;28;20490;-65
2023/08/25 07:24:46;;;;;;;4.75;3.03;;;22.80;99.90;;;;;;5051365;28;20205;-65
2023/08/25 07:27:12;;;;;;;6.85;3.92;;;22.70;99.90;;;;;;5051066;28;20261;-64
2023/08/25 07:29:39;;;;;;;5.43;3.13;;;22.70;99.90;;;;;;5051288;28;20572;-64
2023/08/25 07:32:06;;;;;;;5.88;3.30;;;22.80;99.90;;;;;;5051046;28;20222;-64
2023/08/25 07:34:33;;;;;;;8.85;4.00;;;22.90;99.90;;;;;;5050919;28;20205;-64
2023/08/25 07:37:00;;;;;;;8.85;3.90;;;22.90;99.90;;;;;;5050849;28;20237;-64
2023/08/25 07:39:27;;;;;;;9.55;3.80;;;23.00;99.90;;;;;;5051316;28;20205;-63
2023/08/25 07:41:55;;;;;;;8.10;3.88;;;23.00;99.90;;;;;;5050995;28;20201;-64
2023/08/25 07:44:21;;;;;;;17.38;11.65;;;23.00;99.90;;;;;;5050909;28;20780;-64
2023/08/25 07:46:48;;;;;;;6.43;3.72;;;23.00;99.90;;;;;;5050724;28;20241;-62
2023/08/25 07:49:15;;;;;;;6.43;3.85;;;22.90;99.90;;;;;;5051073;28;20201;-64
2023/08/25 07:51:41;;;;;;;6.05;3.65;;;22.90;99.90;;;;;;5051345;28;20209;-63
2023/08/25 07:54:08;;;;;;;6.05;3.33;;;22.80;99.90;;;;;;5051393;28;20209;-64
2023/08/25 07:56:35;;;;;;;5.50;3.20;;;22.80;99.90;;;;;;5050987;28;20220;-64
2023/08/25 07:59:05;;;;;;;7.47;3.47;;;22.70;99.90;;;;;;5050926;28;20267;-65
2023/08/25 08:01:32;;;;;;;5.03;3.08;;;22.70;99.90;;;;;;5051065;28;20662;-64
2023/08/25 08:03:59;;;;;;;7.07;3.53;;;22.60;99.90;;;;;;5051558;28;20202;-63
2023/08/25 08:06:25;;;;;;;7.25;3.30;;;22.70;99.90;;;;;;5051084;28;20221;-64
2023/08/25 08:08:52;;;;;;;5.30;3.00;;;22.60;99.90;;;;;;5051220;28;20209;-62
2023/08/25 08:11:19;;;;;;;6.72;3.50;;;22.50;99.90;;;;;;5050851;28;20212;-62
2023/08/25 08:13:45;;;;;;;6.65;3.30;;;22.40;99.90;;;;;;5050745;28;20230;-64
2023/08/25 08:16:14;;;;;;;4.72;3.45;;;22.40;99.90;;;;;;5051910;28;20206;-64
2023/08/25 08:18:41;;;;;;;6.32;3.75;;;22.40;99.90;;;;;;5054600;28;20256;-64
2023/08/25 08:21:08;;;;;;;7.55;3.10;;;22.40;99.90;;;;;;5054551;28;20205;-64
2023/08/25 08:23:34;;;;;;;5.00;3.03;;;22.40;99.90;;;;;;5051077;28;20459;-67
2023/08/25 08:26:03;;;;;;;4.75;2.85;;;22.50;99.90;;;;;;5053369;28;20673;-65
2023/08/25 08:28:29;;;;;;;7.40;3.40;;;22.50;99.90;;;;;;5053103;28;20229;-67
2023/08/25 08:30:58;;;;;;;5.97;3.13;;;22.50;99.90;;;;;;5053041;28;20665;-66
2023/08/25 08:33:26;;;;;;;6.15;3.10;;;22.40;99.90;;;;;;5053034;28;20324;-65
2023/08/25 08:35:53;;;;;;;5.38;3.30;;;22.40;99.90;;;;;;5052947;28;20661;-64
2023/08/25 08:38:20;;;;;;;6.32;2.42;;;22.40;99.90;;;;;;5053179;28;20217;-64
2023/08/25 08:40:49;;;;;;;3.60;2.60;;;22.40;99.90;;;;;;5052623;28;20590;-66
2023/08/25 08:43:18;;;;;;;4.40;2.47;;;22.30;99.90;;;;;;5053074;28;20240;-66
2023/08/25 08:45:51;;;;;;;2.20;1.90;;;22.40;99.90;;;;;;5053080;28;20263;-66
2023/08/25 08:48:21;;;;;;;3.22;2.20;;;22.30;99.90;;;;;;5052881;28;20292;-68
2023/08/25 08:50:49;;;;;;;3.55;2.28;;;22.30;99.90;;;;;;5052757;28;20206;-67
2023/08/25 08:53:18;;;;;;;2.83;2.10;;;22.30;99.90;;;;;;5052196;28;20221;-66
2023/08/25 08:55:47;;;;;;;4.22;2.33;;;22.40;99.90;;;;;;5052581;28;20227;-66
2023/08/25 08:58:15;;;;;;;4.22;2.30;;;22.50;99.90;;;;;;5052680;28;20262;-65
2023/08/25 09:00:42;;;;;;;6.25;2.53;;;22.60;99.90;;;;;;5053015;28;20209;-64
2023/08/25 09:03:12;;;;;;;4.88;2.50;;;22.70;99.90;;;;;;5052830;28;20206;-67
2023/08/25 09:05:41;;;;;;;6.43;2.78;;;22.60;99.90;;;;;;5052691;28;20236;-66
2023/08/25 09:08:11;;;;;;;3.83;2.90;;;22.70;99.90;;;;;;5052421;28;20316;-67
2023/08/25 09:10:38;;;;;;;3.83;2.65;;;22.90;99.90;;;;;;5052894;28;20213;-67
2023/08/25 09:13:05;;;;;;;4.18;2.60;;;22.90;99.90;;;;;;5052649;28;20240;-68
2023/08/25 09:15:33;;;;;;;4.50;2.30;;;23.00;99.90;;;;;;5052546;28;20229;-68
2023/08/25 09:18:01;;;;;;;6.32;3.10;;;22.90;99.90;;;;;;5051356;28;20236;-68
2023/08/25 09:20:28;;;;;;;2.70;2.17;;;22.90;99.90;;;;;;5041086;28;20302;-67
2023/08/25 09:22:56;;;;;;;5.57;2.65;;;22.90;99.90;;;;;;5052466;28;20550;-66
2023/08/25 09:25:24;;;;;;;4.25;2.30;;;23.00;99.90;;;;;;5052690;28;20233;-66
2023/08/25 09:27:57;;;;;;;3.42;2.33;;;23.20;99.90;;;;;;5051597;28;20230;-67
2023/08/25 09:30:34;;;;;;;3.85;2.10;;;23.40;99.90;;;;;;5051617;28;20739;-63
2023/08/25 09:33:05;;;;;;;3.92;2.33;;;23.70;99.90;;;;;;5051051;28;20716;-64
2023/08/25 09:35:33;;;;;;;2.65;2.10;;;23.90;99.90;;;;;;5050418;28;20210;-63
2023/08/25 09:38:00;;;;;;;3.22;1.80;;;24.30;99.90;;;;;;5051674;28;20226;-65
2023/08/25 09:40:29;;;;;;;3.47;1.88;;;24.80;99.90;;;;;;5051969;28;20212;-65
2023/08/25 09:43:00;;;;;;;2.72;2.00;;;25.30;99.90;;;;;;5052089;28;20213;-65
2023/08/25 09:45:30;;;;;;;3.30;2.10;;;25.70;99.90;;;;;;5049469;28;20288;-64
2023/08/25 09:48:07;;;;;;;4.20;2.10;;;26.00;99.90;;;;;;5051669;28;20251;-63
2023/08/25 09:50:38;;;;;;;2.47;1.70;;;26.20;99.90;;;;;;5052204;28;20712;-65
2023/08/25 09:53:06;;;;;;;2.88;1.88;;;26.50;99.90;;;;;;5051590;28;20412;-66
2023/08/25 09:55:36;;;;;;;4.38;1.80;;;26.90;99.90;;;;;;5051926;28;20233;-64
2023/08/25 09:58:04;;;;;;;2.13;1.70;;;27.20;99.90;;;;;;5051413;28;20236;-64
2023/08/25 10:00:32;;;;;;;2.20;1.60;;;27.50;99.90;;;;;;5051692;28;20217;-63
2023/08/25 10:02:59;;;;;;;2.85;1.75;;;27.50;99.90;;;;;;5051741;28;20209;-64
2023/08/25 10:05:26;;;;;;;3.35;1.75;;;27.60;99.90;;;;;;5051338;28;20201;-64
2023/08/25 10:07:53;;;;;;;4.15;1.80;;;27.50;99.90;;;;;;5051194;28;20247;-65
2023/08/25 10:10:20;;;;;;;4.13;1.92;;;27.40;99.90;;;;;;5051935;28;20233;-64
2023/08/25 10:12:49;;;;;;;2.28;1.70;;;27.50;99.90;;;;;;5051084;28;20268;-64
2023/08/25 10:15:18;;;;;;;4.03;1.92;;;27.60;99.90;;;;;;5051479;28;20205;-64
2023/08/25 10:17:46;;;;;;;3.88;1.80;;;27.80;99.90;;;;;;5050903;28;20229;-64
2023/08/25 10:20:14;;;;;;;3.55;1.90;;;27.80;99.90;;;;;;5051223;28;20434;-63
2023/08/25 10:22:44;;;;;;;3.63;1.65;;;27.70;99.90;;;;;;5051192;28;20236;-65
2023/08/25 10:25:12;;;;;;;2.80;1.52;;;27.70;99.90;;;;;;5050881;28;20201;-64
2023/08/25 10:27:40;;;;;;;3.38;1.85;;;27.50;99.90;;;;;;5050707;28;20599;-63
2023/08/25 10:30:09;;;;;;;1.92;1.70;;;27.40;99.90;;;;;;5050877;28;20210;-61
2023/08/25 10:32:49;;;;;;;3.17;1.60;;;27.20;99.90;;;;;;5051024;28;20213;-60
2023/08/25 10:35:16;;;;;;;2.05;1.75;;;27.20;99.90;;;;;;5051218;28;20209;-64
2023/08/25 10:37:43;;;;;;;2.75;1.70;;;27.20;99.90;;;;;;5049743;28;20225;-62
2023/08/25 10:40:11;;;;;;;1.77;1.48;;;27.20;99.90;;;;;;5049425;28;20596;-62
2023/08/25 10:42:38;;;;;;;4.25;2.25;;;27.20;99.90;;;;;;5050402;28;20210;-67
2023/08/25 10:45:08;;;;;;;3.55;1.80;;;27.20;99.90;;;;;;5049083;28;20205;-64
2023/08/25 10:47:44;;;;;;;3.10;1.80;;;27.00;99.90;;;;;;5048935;28;20237;-62
2023/08/25 10:50:11;;;;;;;4.05;2.00;;;26.90;99.90;;;;;;5050393;28;20235;-61
2023/08/25 10:52:42;;;;;;;3.65;2.15;;;26.80;99.90;;;;;;5050389;28;20206;-64
2023/08/25 10:55:26;;;;;;;3.60;1.75;;;26.70;99.90;;;;;;5050396;28;20695;-63
2023/08/25 10:57:53;;;;;;;3.28;1.92;;;26.70;99.90;;;;;;5050152;28;20261;-62
2023/08/25 11:00:28;;;;;;;4.65;2.28;;;26.80;99.90;;;;;;5050240;28;20213;-64
2023/08/25 11:02:57;;;;;;;4.25;2.42;;;26.80;99.90;;;;;;5049648;28;20573;-63
2023/08/25 11:05:44;;;;;;;2.85;1.80;;;26.90;99.90;;;;;;5050300;28;20248;-63
2023/08/25 11:08:27;;;;;;;2.83;1.63;;;27.10;99.90;;;;;;5049536;28;20233;-61
2023/08/25 11:11:11;;;;;;;4.88;1.80;;;27.20;99.90;;;;;;5049617;28;20263;-64
2023/08/25 11:13:39;;;;;;;3.90;2.00;;;27.40;99.90;;;;;;5049869;28;20238;-64
2023/08/25 11:16:08;;;;;;;4.10;2.25;;;27.70;99.90;;;;;;5049312;28;20684;-63
2023/08/25 11:18:36;;;;;;;2.88;2.10;;;28.00;99.90;;;;;;5049505;28;20229;-61
2023/08/25 11:21:04;;;;;;;3.90;2.15;;;28.30;99.90;;;;;;5050008;28;20669;-62
2023/08/25 11:23:38;;;;;;;2.53;1.85;;;28.50;99.90;;;;;;5050315;28;20205;-61
2023/08/25 11:26:07;;;;;;;2.63;1.88;;;28.80;99.90;;;;;;5049552;28;20208;-62
2023/08/25 11:28:34;;;;;;;6.38;1.90;;;29.10;99.90;;;;;;5050364;28;20279;-61
2023/08/25 11:31:03;;;;;;;2.63;2.00;;;29.20;99.90;;;;;;5047487;28;20205;-61
2023/08/25 11:33:31;;;;;;;3.42;2.00;;;29.20;99.90;;;;;;5049502;28;20228;-62
2023/08/25 11:35:59;;;;;;;3.47;2.03;;;29.20;99.90;;;;;;5048702;28;20271;-62
2023/08/25 11:38:26;;;;;;;5.07;2.47;;;29.10;99.90;;;;;;5049085;28;20229;-64
2023/08/25 11:40:55;;;;;;;3.92;2.10;;;29.00;99.90;;;;;;5036392;28;20238;-64
2023/08/25 11:43:27;;;;;;;3.30;1.90;;;28.90;99.90;;;;;;5031153;28;20255;-63
2023/08/25 11:45:54;;;;;;;3.70;2.13;;;29.00;99.90;;;;;;5030578;28;20221;-64
2023/08/25 11:48:21;;;;;;;3.35;1.67;;;29.00;99.90;;;;;;5030626;28;20312;-65
2023/08/25 11:50:48;;;;;;;4.32;2.00;;;29.10;99.90;;;;;;5030762;28;20210;-64
2023/08/25 11:53:16;;;;;;;2.25;2.00;;;29.30;99.90;;;;;;5034606;28;20233;-64
2023/08/25 11:55:43;;;;;;;3.30;1.92;;;29.50;99.90;;;;;;5034763;28;20355;-65
2023/08/25 11:58:11;;;;;;;4.93;2.13;;;29.50;99.90;;;;;;5034401;28;20337;-66
2023/08/25 12:00:39;;;;;;;2.78;1.83;;;29.50;99.90;;;;;;5034184;28;20206;-65
2023/08/25 12:03:06;;;;;;;4.47;2.10;;;29.40;99.90;;;;;;5034286;28;20304;-65
2023/08/25 12:05:36;;;;;;;3.53;2.60;;;29.20;99.90;;;;;;5033938;28;20202;-64
2023/08/25 12:08:03;;;;;;;6.40;3.30;;;28.90;99.90;;;;;;5034224;28;20226;-65
2023/08/25 12:10:36;;;;;;;2.97;2.50;;;28.80;99.90;;;;;;5034319;28;20222;-66
2023/08/25 12:13:03;;;;;;;2.90;2.30;;;28.60;99.90;;;;;;5034070;28;20301;-64
2023/08/25 12:15:40;;;;;;;3.10;2.30;;;28.60;99.90;;;;;;5033896;28;20210;-64
2023/08/25 12:18:07;;;;;;;3.38;2.42;;;28.60;99.90;;;;;;5034202;28;20261;-65
2023/08/25 12:20:34;;;;;;;2.63;2.20;;;28.50;99.90;;;;;;5034103;28;20605;-65
2023/08/25 12:23:01;;;;;;;5.47;2.70;;;28.50;99.90;;;;;;5034005;28;20210;-65
2023/08/25 12:25:30;;;;;;;2.38;2.17;;;28.40;99.90;;;;;;5033651;28;20213;-65
2023/08/25 12:27:59;;;;;;;3.55;2.00;;;28.30;99.90;;;;;;5033448;28;20715;-64
2023/08/25 12:30:27;;;;;;;2.72;2.05;;;28.20;99.90;;;;;;5034177;28;20229;-64
2023/08/25 12:32:54;;;;;;;5.13;2.10;;;28.10;99.90;;;;;;5034205;28;20212;-64
2023/08/25 12:35:22;;;;;;;3.90;2.60;;;28.00;99.90;;;;;;5033760;28;20335;-64
2023/08/25 12:37:49;;;;;;;5.57;2.50;;;27.80;99.90;;;;;;5033755;28;20227;-65
2023/08/25 12:40:20;;;;;;;2.40;2.17;;;27.70;99.90;;;;;;5034336;28;20678;-65
2023/08/25 12:42:47;;;;;;;2.83;2.28;;;27.70;99.90;;;;;;5033987;28;20674;-65
2023/08/25 12:45:15;;;;;;;5.70;2.60;;;27.50;99.90;;;;;;5034022;28;20697;-64
2023/08/25 12:47:42;;;;;;;5.05;2.33;;;27.50;99.90;;;;;;5033125;28;20234;-64
2023/08/25 12:50:09;;;;;;;4.90;2.83;;;27.50;99.90;;;;;;5033555;28;20233;-65